sensor_id;sensor_type;location;lat;lon;timestamp;P1;durP1;ratioP1;P2;durP2;ratioP2
19842;SDS011;10082;51.038;6.992;2023-06-14T00:00:32;6.85;;;5.78;;
19842;SDS011;10082;51.038;6.992;2023-06-14T00:03:03;6.18;;;5.63;;
19842;SDS011;10082;51.038;6.992;2023-06-14T00:05:33;5.90;;;5.38;;
19842;SDS011;10082;51.038;6.992;2023-06-14T00:08:06;6.30;;;5.80;;
19842;SDS011;10082;51.038;6.992;2023-06-14T00:10:34;5.82;;;5.30;;
19842;SDS011;10082;51.038;6.992;2023-06-14T00:13:02;6.32;;;5.72;;
19842;SDS011;10082;51.038;6.992;2023-06-14T00:15:30;5.93;;;5.32;;
19842;SDS011;10082;51.038;6.992;2023-06-14T00:17:57;6.10;;;5.60;;
19842;SDS011;10082;51.038;6.992;2023-06-14T00:20:28;6.30;;;5.80;;
19842;SDS011;10082;51.038;6.992;2023-06-14T00:22:56;5.85;;;5.30;;
19842;SDS011;10082;51.038;6.992;2023-06-14T00:25:23;6.90;;;6.30;;
19842;SDS011;10082;51.038;6.992;2023-06-14T00:27:55;6.32;;;5.82;;
19842;SDS011;10082;51.038;6.992;2023-06-14T00:30:23;5.88;;;5.38;;
19842;SDS011;10082;51.038;6.992;2023-06-14T00:32:55;6.05;;;5.43;;
19842;SDS011;10082;51.038;6.992;2023-06-14T00:35:24;6.18;;;5.57;;
19842;SDS011;10082;51.038;6.992;2023-06-14T00:37:53;5.75;;;5.25;;
19842;SDS011;10082;51.038;6.992;2023-06-14T00:40:21;5.60;;;5.20;;
19842;SDS011;10082;51.038;6.992;2023-06-14T00:42:48;6.13;;;5.60;;
19842;SDS011;10082;51.038;6.992;2023-06-14T00:45:16;6.22;;;5.68;;
19842;SDS011;10082;51.038;6.992;2023-06-14T00:47:43;6.22;;;5.63;;
19842;SDS011;10082;51.038;6.992;2023-06-14T00:50:16;6.30;;;5.80;;
19842;SDS011;10082;51.038;6.992;2023-06-14T00:52:44;6.47;;;5.88;;
19842;SDS011;10082;51.038;6.992;2023-06-14T00:55:13;6.20;;;5.70;;
19842;SDS011;10082;51.038;6.992;2023-06-14T00:57:40;7.80;;;5.93;;
19842;SDS011;10082;51.038;6.992;2023-06-14T01:00:13;5.68;;;5.18;;
19842;SDS011;10082;51.038;6.992;2023-06-14T01:02:41;6.50;;;5.68;;
19842;SDS011;10082;51.038;6.992;2023-06-14T01:05:09;6.07;;;5.43;;
19842;SDS011;10082;51.038;6.992;2023-06-14T01:07:46;5.97;;;5.47;;
19842;SDS011;10082;51.038;6.992;2023-06-14T01:10:28;5.70;;;5.20;;
19842;SDS011;10082;51.038;6.992;2023-06-14T01:13:05;6.25;;;5.40;;
19842;SDS011;10082;51.038;6.992;2023-06-14T01:15:38;6.07;;;5.35;;
19842;SDS011;10082;51.038;6.992;2023-06-14T01:18:08;5.95;;;5.35;;
19842;SDS011;10082;51.038;6.992;2023-06-14T01:20:43;5.60;;;5.13;;
19842;SDS011;10082;51.038;6.992;2023-06-14T01:23:14;5.65;;;5.25;;
19842;SDS011;10082;51.038;6.992;2023-06-14T01:25:41;6.10;;;5.50;;
19842;SDS011;10082;51.038;6.992;2023-06-14T01:28:16;6.10;;;5.60;;
19842;SDS011;10082;51.038;6.992;2023-06-14T01:30:46;7.22;;;6.10;;
19842;SDS011;10082;51.038;6.992;2023-06-14T01:33:17;5.63;;;5.13;;
19842;SDS011;10082;51.038;6.992;2023-06-14T01:35:46;6.10;;;5.60;;
19842;SDS011;10082;51.038;6.992;2023-06-14T01:38:18;6.53;;;5.93;;
19842;SDS011;10082;51.038;6.992;2023-06-14T01:40:49;6.75;;;5.68;;
19842;SDS011;10082;51.038;6.992;2023-06-14T01:43:18;5.85;;;5.32;;
19842;SDS011;10082;51.038;6.992;2023-06-14T01:45:47;5.55;;;5.05;;
19842;SDS011;10082;51.038;6.992;2023-06-14T01:48:15;5.82;;;5.32;;
19842;SDS011;10082;51.038;6.992;2023-06-14T01:50:43;5.70;;;5.20;;
19842;SDS011;10082;51.038;6.992;2023-06-14T01:53:11;5.70;;;5.25;;
19842;SDS011;10082;51.038;6.992;2023-06-14T01:55:40;5.50;;;5.05;;
19842;SDS011;10082;51.038;6.992;2023-06-14T01:58:08;5.78;;;5.28;;
19842;SDS011;10082;51.038;6.992;2023-06-14T02:00:36;5.57;;;5.13;;
19842;SDS011;10082;51.038;6.992;2023-06-14T02:03:03;5.57;;;5.07;;
19842;SDS011;10082;51.038;6.992;2023-06-14T02:05:31;6.00;;;5.40;;
19842;SDS011;10082;51.038;6.992;2023-06-14T02:07:59;6.63;;;5.57;;
19842;SDS011;10082;51.038;6.992;2023-06-14T02:10:27;5.40;;;4.90;;
19842;SDS011;10082;51.038;6.992;2023-06-14T02:12:56;5.90;;;5.40;;
19842;SDS011;10082;51.038;6.992;2023-06-14T02:15:24;5.80;;;5.30;;
19842;SDS011;10082;51.038;6.992;2023-06-14T02:18:00;5.65;;;5.25;;
19842;SDS011;10082;51.038;6.992;2023-06-14T02:20:28;5.15;;;4.70;;
19842;SDS011;10082;51.038;6.992;2023-06-14T02:22:56;6.65;;;6.05;;
19842;SDS011;10082;51.038;6.992;2023-06-14T02:25:24;6.47;;;5.45;;
19842;SDS011;10082;51.038;6.992;2023-06-14T02:27:53;5.93;;;5.40;;
19842;SDS011;10082;51.038;6.992;2023-06-14T02:30:22;6.03;;;5.43;;
19842;SDS011;10082;51.038;6.992;2023-06-14T02:32:49;6.15;;;4.95;;
19842;SDS011;10082;51.038;6.992;2023-06-14T02:35:16;6.10;;;5.50;;
19842;SDS011;10082;51.038;6.992;2023-06-14T02:37:43;5.47;;;4.97;;
19842;SDS011;10082;51.038;6.992;2023-06-14T02:40:11;7.45;;;5.25;;
19842;SDS011;10082;51.038;6.992;2023-06-14T02:42:39;6.15;;;5.35;;
19842;SDS011;10082;51.038;6.992;2023-06-14T02:45:06;5.43;;;5.00;;
19842;SDS011;10082;51.038;6.992;2023-06-14T02:47:36;5.57;;;5.07;;
19842;SDS011;10082;51.038;6.992;2023-06-14T02:50:04;7.35;;;5.10;;
19842;SDS011;10082;51.038;6.992;2023-06-14T02:52:33;7.43;;;5.35;;
19842;SDS011;10082;51.038;6.992;2023-06-14T02:55:01;6.45;;;4.78;;
19842;SDS011;10082;51.038;6.992;2023-06-14T02:57:28;6.63;;;5.25;;
19842;SDS011;10082;51.038;6.992;2023-06-14T02:59:56;7.93;;;5.03;;
19842;SDS011;10082;51.038;6.992;2023-06-14T03:02:24;6.00;;;5.50;;
19842;SDS011;10082;51.038;6.992;2023-06-14T03:04:53;6.05;;;5.53;;
19842;SDS011;10082;51.038;6.992;2023-06-14T03:07:22;8.40;;;5.60;;
19842;SDS011;10082;51.038;6.992;2023-06-14T03:09:52;6.72;;;5.35;;
19842;SDS011;10082;51.038;6.992;2023-06-14T03:12:20;5.97;;;5.10;;
19842;SDS011;10082;51.038;6.992;2023-06-14T03:14:51;7.05;;;5.63;;
19842;SDS011;10082;51.038;6.992;2023-06-14T03:17:23;5.72;;;5.15;;
19842;SDS011;10082;51.038;6.992;2023-06-14T03:20:00;6.85;;;5.35;;
19842;SDS011;10082;51.038;6.992;2023-06-14T03:22:30;5.10;;;4.63;;
19842;SDS011;10082;51.038;6.992;2023-06-14T03:24:59;5.65;;;5.15;;
19842;SDS011;10082;51.038;6.992;2023-06-14T03:27:31;5.45;;;4.88;;
19842;SDS011;10082;51.038;6.992;2023-06-14T03:29:59;5.47;;;5.05;;
19842;SDS011;10082;51.038;6.992;2023-06-14T03:32:26;7.18;;;5.35;;
19842;SDS011;10082;51.038;6.992;2023-06-14T03:34:55;5.07;;;4.55;;
19842;SDS011;10082;51.038;6.992;2023-06-14T03:37:24;7.57;;;5.55;;
19842;SDS011;10082;51.038;6.992;2023-06-14T03:39:52;5.10;;;4.70;;
19842;SDS011;10082;51.038;6.992;2023-06-14T03:42:22;5.53;;;4.95;;
19842;SDS011;10082;51.038;6.992;2023-06-14T03:44:50;7.38;;;5.45;;
19842;SDS011;10082;51.038;6.992;2023-06-14T03:47:20;5.45;;;4.95;;
19842;SDS011;10082;51.038;6.992;2023-06-14T03:49:47;5.88;;;5.10;;
19842;SDS011;10082;51.038;6.992;2023-06-14T03:52:14;5.75;;;5.25;;
19842;SDS011;10082;51.038;6.992;2023-06-14T03:54:46;5.85;;;5.32;;
19842;SDS011;10082;51.038;6.992;2023-06-14T03:57:14;5.50;;;4.88;;
19842;SDS011;10082;51.038;6.992;2023-06-14T03:59:43;5.60;;;5.05;;
19842;SDS011;10082;51.038;6.992;2023-06-14T04:02:10;6.15;;;5.55;;
19842;SDS011;10082;51.038;6.992;2023-06-14T04:04:40;6.13;;;5.35;;
19842;SDS011;10082;51.038;6.992;2023-06-14T04:07:10;5.38;;;4.97;;
19842;SDS011;10082;51.038;6.992;2023-06-14T04:09:38;6.95;;;5.30;;
19842;SDS011;10082;51.038;6.992;2023-06-14T04:12:07;5.85;;;5.25;;
19842;SDS011;10082;51.038;6.992;2023-06-14T04:14:36;5.38;;;4.82;;
19842;SDS011;10082;51.038;6.992;2023-06-14T04:17:04;6.00;;;5.40;;
19842;SDS011;10082;51.038;6.992;2023-06-14T04:19:33;5.63;;;5.07;;
19842;SDS011;10082;51.038;6.992;2023-06-14T04:22:01;7.35;;;5.70;;
19842;SDS011;10082;51.038;6.992;2023-06-14T04:24:30;6.07;;;5.50;;
19842;SDS011;10082;51.038;6.992;2023-06-14T04:27:00;7.47;;;5.90;;
19842;SDS011;10082;51.038;6.992;2023-06-14T04:29:30;5.65;;;5.25;;
19842;SDS011;10082;51.038;6.992;2023-06-14T04:32:04;6.25;;;5.30;;
19842;SDS011;10082;51.038;6.992;2023-06-14T04:34:36;9.82;;;5.68;;
19842;SDS011;10082;51.038;6.992;2023-06-14T04:37:06;6.78;;;5.40;;
19842;SDS011;10082;51.038;6.992;2023-06-14T04:39:39;8.20;;;5.30;;
19842;SDS011;10082;51.038;6.992;2023-06-14T04:42:07;6.55;;;4.85;;
19842;SDS011;10082;51.038;6.992;2023-06-14T04:44:38;5.57;;;5.07;;
19842;SDS011;10082;51.038;6.992;2023-06-14T04:47:05;5.38;;;4.88;;
19842;SDS011;10082;51.038;6.992;2023-06-14T04:49:32;4.93;;;4.53;;
19842;SDS011;10082;51.038;6.992;2023-06-14T04:52:00;5.45;;;4.50;;
19842;SDS011;10082;51.038;6.992;2023-06-14T04:54:33;5.50;;;4.82;;
19842;SDS011;10082;51.038;6.992;2023-06-14T04:57:03;5.05;;;4.38;;
19842;SDS011;10082;51.038;6.992;2023-06-14T04:59:31;4.82;;;3.90;;
19842;SDS011;10082;51.038;6.992;2023-06-14T05:02:02;4.60;;;4.20;;
19842;SDS011;10082;51.038;6.992;2023-06-14T05:04:30;5.05;;;4.43;;
19842;SDS011;10082;51.038;6.992;2023-06-14T05:06:58;6.00;;;4.45;;
19842;SDS011;10082;51.038;6.992;2023-06-14T05:09:26;5.03;;;4.53;;
19842;SDS011;10082;51.038;6.992;2023-06-14T05:11:53;4.53;;;4.13;;
19842;SDS011;10082;51.038;6.992;2023-06-14T05:14:21;4.30;;;3.90;;
19842;SDS011;10082;51.038;6.992;2023-06-14T05:16:49;4.95;;;4.38;;
19842;SDS011;10082;51.038;6.992;2023-06-14T05:19:18;7.43;;;4.20;;
19842;SDS011;10082;51.038;6.992;2023-06-14T05:21:46;5.10;;;4.40;;
19842;SDS011;10082;51.038;6.992;2023-06-14T05:24:13;4.80;;;4.30;;
19842;SDS011;10082;51.038;6.992;2023-06-14T05:26:40;6.45;;;3.97;;
19842;SDS011;10082;51.038;6.992;2023-06-14T05:29:07;5.47;;;4.13;;
19842;SDS011;10082;51.038;6.992;2023-06-14T05:31:34;4.32;;;3.95;;
19842;SDS011;10082;51.038;6.992;2023-06-14T05:34:01;4.50;;;4.10;;
19842;SDS011;10082;51.038;6.992;2023-06-14T05:36:30;5.63;;;4.20;;
19842;SDS011;10082;51.038;6.992;2023-06-14T05:38:57;4.40;;;4.00;;
19842;SDS011;10082;51.038;6.992;2023-06-14T05:41:25;4.47;;;4.07;;
19842;SDS011;10082;51.038;6.992;2023-06-14T05:43:52;4.93;;;4.30;;
19842;SDS011;10082;51.038;6.992;2023-06-14T05:46:20;4.32;;;4.03;;
19842;SDS011;10082;51.038;6.992;2023-06-14T05:48:49;5.13;;;3.65;;
19842;SDS011;10082;51.038;6.992;2023-06-14T05:51:16;4.47;;;4.07;;
19842;SDS011;10082;51.038;6.992;2023-06-14T05:53:46;4.72;;;4.32;;
19842;SDS011;10082;51.038;6.992;2023-06-14T05:56:14;4.38;;;4.07;;
19842;SDS011;10082;51.038;6.992;2023-06-14T05:58:43;5.65;;;5.10;;
19842;SDS011;10082;51.038;6.992;2023-06-14T06:01:10;5.07;;;4.00;;
19842;SDS011;10082;51.038;6.992;2023-06-14T06:03:38;5.78;;;4.50;;
19842;SDS011;10082;51.038;6.992;2023-06-14T06:06:05;6.80;;;4.30;;
19842;SDS011;10082;51.038;6.992;2023-06-14T06:08:33;4.28;;;3.78;;
19842;SDS011;10082;51.038;6.992;2023-06-14T06:11:02;4.43;;;3.97;;
19842;SDS011;10082;51.038;6.992;2023-06-14T06:13:28;5.55;;;3.95;;
19842;SDS011;10082;51.038;6.992;2023-06-14T06:15:56;5.35;;;4.13;;
19842;SDS011;10082;51.038;6.992;2023-06-14T06:18:23;3.95;;;3.63;;
19842;SDS011;10082;51.038;6.992;2023-06-14T06:20:51;7.15;;;4.03;;
19842;SDS011;10082;51.038;6.992;2023-06-14T06:23:18;5.72;;;4.03;;
19842;SDS011;10082;51.038;6.992;2023-06-14T06:25:45;4.15;;;3.85;;
19842;SDS011;10082;51.038;6.992;2023-06-14T06:28:15;4.45;;;3.70;;
19842;SDS011;10082;51.038;6.992;2023-06-14T06:30:43;4.20;;;3.80;;
19842;SDS011;10082;51.038;6.992;2023-06-14T06:33:10;7.00;;;4.00;;
19842;SDS011;10082;51.038;6.992;2023-06-14T06:35:37;3.83;;;3.47;;
19842;SDS011;10082;51.038;6.992;2023-06-14T06:38:04;5.45;;;3.97;;
19842;SDS011;10082;51.038;6.992;2023-06-14T06:40:30;3.97;;;3.42;;
19842;SDS011;10082;51.038;6.992;2023-06-14T06:42:58;6.10;;;3.50;;
19842;SDS011;10082;51.038;6.992;2023-06-14T06:45:28;6.40;;;3.58;;
19842;SDS011;10082;51.038;6.992;2023-06-14T06:47:55;3.58;;;3.28;;
19842;SDS011;10082;51.038;6.992;2023-06-14T06:50:23;3.85;;;3.42;;
19842;SDS011;10082;51.038;6.992;2023-06-14T06:52:50;4.40;;;3.30;;
19842;SDS011;10082;51.038;6.992;2023-06-14T06:55:18;3.85;;;3.53;;
19842;SDS011;10082;51.038;6.992;2023-06-14T06:57:45;4.40;;;3.78;;
19842;SDS011;10082;51.038;6.992;2023-06-14T07:00:12;3.55;;;3.10;;
19842;SDS011;10082;51.038;6.992;2023-06-14T07:02:40;3.55;;;3.17;;
19842;SDS011;10082;51.038;6.992;2023-06-14T07:05:07;3.47;;;3.20;;
19842;SDS011;10082;51.038;6.992;2023-06-14T07:07:37;6.65;;;3.67;;
19842;SDS011;10082;51.038;6.992;2023-06-14T07:10:04;5.45;;;3.30;;
19842;SDS011;10082;51.038;6.992;2023-06-14T07:12:32;3.03;;;2.80;;
19842;SDS011;10082;51.038;6.992;2023-06-14T07:15:04;4.15;;;2.90;;
19842;SDS011;10082;51.038;6.992;2023-06-14T07:17:32;4.13;;;3.25;;
19842;SDS011;10082;51.038;6.992;2023-06-14T07:20:00;3.95;;;3.17;;
19842;SDS011;10082;51.038;6.992;2023-06-14T07:22:37;2.83;;;2.28;;
19842;SDS011;10082;51.038;6.992;2023-06-14T07:25:06;4.85;;;2.63;;
19842;SDS011;10082;51.038;6.992;2023-06-14T07:27:33;3.00;;;2.70;;
19842;SDS011;10082;51.038;6.992;2023-06-14T07:30:00;2.78;;;2.28;;
19842;SDS011;10082;51.038;6.992;2023-06-14T07:32:27;2.90;;;2.28;;
19842;SDS011;10082;51.038;6.992;2023-06-14T07:34:54;3.70;;;2.47;;
19842;SDS011;10082;51.038;6.992;2023-06-14T07:37:23;1.95;;;1.85;;
19842;SDS011;10082;51.038;6.992;2023-06-14T07:39:50;3.80;;;2.17;;
19842;SDS011;10082;51.038;6.992;2023-06-14T07:42:17;3.67;;;2.13;;
19842;SDS011;10082;51.038;6.992;2023-06-14T07:44:45;2.55;;;2.05;;
19842;SDS011;10082;51.038;6.992;2023-06-14T07:47:12;3.50;;;2.00;;
19842;SDS011;10082;51.038;6.992;2023-06-14T07:49:39;3.20;;;2.22;;
19842;SDS011;10082;51.038;6.992;2023-06-14T07:52:06;2.47;;;2.10;;
19842;SDS011;10082;51.038;6.992;2023-06-14T07:54:36;3.90;;;1.92;;
19842;SDS011;10082;51.038;6.992;2023-06-14T07:57:03;2.08;;;1.98;;
19842;SDS011;10082;51.038;6.992;2023-06-14T07:59:31;2.08;;;1.88;;
19842;SDS011;10082;51.038;6.992;2023-06-14T08:01:58;1.80;;;1.70;;
19842;SDS011;10082;51.038;6.992;2023-06-14T08:04:25;2.30;;;2.10;;
19842;SDS011;10082;51.038;6.992;2023-06-14T08:06:52;2.22;;;1.95;;
19842;SDS011;10082;51.038;6.992;2023-06-14T08:09:19;3.05;;;2.20;;
19842;SDS011;10082;51.038;6.992;2023-06-14T08:11:48;2.38;;;1.80;;
19842;SDS011;10082;51.038;6.992;2023-06-14T08:14:15;2.97;;;2.15;;
19842;SDS011;10082;51.038;6.992;2023-06-14T08:16:42;2.80;;;2.00;;
19842;SDS011;10082;51.038;6.992;2023-06-14T08:19:09;2.22;;;2.00;;
19842;SDS011;10082;51.038;6.992;2023-06-14T08:21:36;2.10;;;1.90;;
19842;SDS011;10082;51.038;6.992;2023-06-14T08:24:04;2.92;;;2.00;;
19842;SDS011;10082;51.038;6.992;2023-06-14T08:26:31;2.45;;;2.17;;
19842;SDS011;10082;51.038;6.992;2023-06-14T08:29:00;2.22;;;2.13;;
19842;SDS011;10082;51.038;6.992;2023-06-14T08:31:26;2.95;;;2.08;;
19842;SDS011;10082;51.038;6.992;2023-06-14T08:33:54;2.20;;;2.00;;
19842;SDS011;10082;51.038;6.992;2023-06-14T08:36:26;3.03;;;2.20;;
19842;SDS011;10082;51.038;6.992;2023-06-14T08:38:53;2.72;;;2.10;;
19842;SDS011;10082;51.038;6.992;2023-06-14T08:41:21;2.03;;;1.90;;
19842;SDS011;10082;51.038;6.992;2023-06-14T08:43:49;3.25;;;2.15;;
19842;SDS011;10082;51.038;6.992;2023-06-14T08:46:18;3.00;;;1.92;;
19842;SDS011;10082;51.038;6.992;2023-06-14T08:48:47;2.75;;;2.22;;
19842;SDS011;10082;51.038;6.992;2023-06-14T08:53:48;2.10;;;2.00;;
19842;SDS011;10082;51.038;6.992;2023-06-14T08:56:18;2.97;;;2.10;;
19842;SDS011;10082;51.038;6.992;2023-06-14T08:58:47;2.22;;;1.90;;
19842;SDS011;10082;51.038;6.992;2023-06-14T09:01:15;3.05;;;2.00;;
19842;SDS011;10082;51.038;6.992;2023-06-14T09:03:44;2.03;;;1.90;;
19842;SDS011;10082;51.038;6.992;2023-06-14T09:06:13;2.20;;;2.00;;
19842;SDS011;10082;51.038;6.992;2023-06-14T09:08:41;2.30;;;2.10;;
19842;SDS011;10082;51.038;6.992;2023-06-14T09:11:10;3.00;;;2.60;;
19842;SDS011;10082;51.038;6.992;2023-06-14T09:13:38;2.92;;;2.22;;
19842;SDS011;10082;51.038;6.992;2023-06-14T09:16:06;2.10;;;2.00;;
19842;SDS011;10082;51.038;6.992;2023-06-14T09:18:37;2.10;;;2.00;;
19842;SDS011;10082;51.038;6.992;2023-06-14T09:21:07;2.67;;;2.47;;
19842;SDS011;10082;51.038;6.992;2023-06-14T09:23:36;2.83;;;2.10;;
19842;SDS011;10082;51.038;6.992;2023-06-14T09:26:07;3.42;;;2.22;;
19842;SDS011;10082;51.038;6.992;2023-06-14T09:28:35;2.20;;;2.03;;
19842;SDS011;10082;51.038;6.992;2023-06-14T09:31:02;2.90;;;2.28;;
19842;SDS011;10082;51.038;6.992;2023-06-14T09:33:30;3.97;;;2.03;;
19842;SDS011;10082;51.038;6.992;2023-06-14T09:35:57;3.88;;;2.33;;
19842;SDS011;10082;51.038;6.992;2023-06-14T09:38:25;2.55;;;2.30;;
19842;SDS011;10082;51.038;6.992;2023-06-14T09:40:52;3.75;;;2.50;;
19842;SDS011;10082;51.038;6.992;2023-06-14T09:43:22;2.40;;;2.20;;
19842;SDS011;10082;51.038;6.992;2023-06-14T09:45:52;3.03;;;2.20;;
19842;SDS011;10082;51.038;6.992;2023-06-14T09:50:56;4.85;;;2.15;;
19842;SDS011;10082;51.038;6.992;2023-06-14T09:53:29;2.30;;;2.10;;
19842;SDS011;10082;51.038;6.992;2023-06-14T09:55:59;3.70;;;2.28;;
19842;SDS011;10082;51.038;6.992;2023-06-14T09:58:26;2.25;;;2.00;;
19842;SDS011;10082;51.038;6.992;2023-06-14T10:00:56;3.03;;;2.10;;
19842;SDS011;10082;51.038;6.992;2023-06-14T10:03:25;3.78;;;2.25;;
19842;SDS011;10082;51.038;6.992;2023-06-14T10:05:55;2.10;;;1.95;;
19842;SDS011;10082;51.038;6.992;2023-06-14T10:08:30;2.30;;;2.00;;
19842;SDS011;10082;51.038;6.992;2023-06-14T10:11:00;2.58;;;2.17;;
19842;SDS011;10082;51.038;6.992;2023-06-14T10:13:28;2.25;;;2.15;;
19842;SDS011;10082;51.038;6.992;2023-06-14T10:16:00;4.80;;;2.70;;
19842;SDS011;10082;51.038;6.992;2023-06-14T10:18:37;4.38;;;2.28;;
19842;SDS011;10082;51.038;6.992;2023-06-14T10:21:14;2.30;;;2.10;;
19842;SDS011;10082;51.038;6.992;2023-06-14T10:23:49;2.50;;;2.40;;
19842;SDS011;10082;51.038;6.992;2023-06-14T10:26:20;2.75;;;2.15;;
19842;SDS011;10082;51.038;6.992;2023-06-14T10:29:07;2.22;;;1.98;;
19842;SDS011;10082;51.038;6.992;2023-06-14T10:31:41;3.55;;;2.20;;
19842;SDS011;10082;51.038;6.992;2023-06-14T10:34:09;2.97;;;2.38;;
19842;SDS011;10082;51.038;6.992;2023-06-14T10:36:38;2.60;;;2.40;;
19842;SDS011;10082;51.038;6.992;2023-06-14T10:39:14;2.70;;;2.50;;
19842;SDS011;10082;51.038;6.992;2023-06-14T10:41:50;2.55;;;2.35;;
19842;SDS011;10082;51.038;6.992;2023-06-14T10:44:38;2.70;;;2.50;;
19842;SDS011;10082;51.038;6.992;2023-06-14T10:47:07;2.28;;;2.10;;
19842;SDS011;10082;51.038;6.992;2023-06-14T10:49:36;3.13;;;2.60;;
19842;SDS011;10082;51.038;6.992;2023-06-14T10:52:14;2.38;;;2.13;;
19842;SDS011;10082;51.038;6.992;2023-06-14T10:57:37;3.05;;;2.28;;
19842;SDS011;10082;51.038;6.992;2023-06-14T11:00:05;2.28;;;2.08;;
19842;SDS011;10082;51.038;6.992;2023-06-14T11:05:54;2.92;;;2.60;;
19842;SDS011;10082;51.038;6.992;2023-06-14T11:08:45;2.67;;;2.47;;
19842;SDS011;10082;51.038;6.992;2023-06-14T11:11:35;2.55;;;2.35;;
19842;SDS011;10082;51.038;6.992;2023-06-14T11:14:04;2.63;;;2.42;;
19842;SDS011;10082;51.038;6.992;2023-06-14T11:16:31;3.90;;;2.15;;
19842;SDS011;10082;51.038;6.992;2023-06-14T11:19:00;2.45;;;2.30;;
19842;SDS011;10082;51.038;6.992;2023-06-14T11:21:28;2.70;;;2.10;;
19842;SDS011;10082;51.038;6.992;2023-06-14T11:23:58;2.30;;;2.10;;
19842;SDS011;10082;51.038;6.992;2023-06-14T11:26:25;3.10;;;2.40;;
19842;SDS011;10082;51.038;6.992;2023-06-14T11:28:58;2.45;;;2.22;;
19842;SDS011;10082;51.038;6.992;2023-06-14T11:31:26;2.13;;;2.03;;
19842;SDS011;10082;51.038;6.992;2023-06-14T11:33:54;2.30;;;1.95;;
19842;SDS011;10082;51.038;6.992;2023-06-14T11:36:22;2.10;;;1.88;;
19842;SDS011;10082;51.038;6.992;2023-06-14T11:38:50;2.80;;;2.15;;
19842;SDS011;10082;51.038;6.992;2023-06-14T11:41:24;2.08;;;1.98;;
19842;SDS011;10082;51.038;6.992;2023-06-14T11:43:52;2.72;;;2.00;;
19842;SDS011;10082;51.038;6.992;2023-06-14T11:46:21;1.88;;;1.77;;
19842;SDS011;10082;51.038;6.992;2023-06-14T11:48:49;1.80;;;1.70;;
19842;SDS011;10082;51.038;6.992;2023-06-14T11:51:18;1.80;;;1.70;;
19842;SDS011;10082;51.038;6.992;2023-06-14T11:53:47;3.00;;;1.95;;
19842;SDS011;10082;51.038;6.992;2023-06-14T11:56:14;2.05;;;1.85;;
19842;SDS011;10082;51.038;6.992;2023-06-14T11:58:42;1.90;;;1.80;;
19842;SDS011;10082;51.038;6.992;2023-06-14T12:01:09;1.88;;;1.70;;
19842;SDS011;10082;51.038;6.992;2023-06-14T12:03:48;1.83;;;1.50;;
19842;SDS011;10082;51.038;6.992;2023-06-14T12:06:15;2.63;;;1.90;;
19842;SDS011;10082;51.038;6.992;2023-06-14T12:08:43;1.80;;;1.70;;
19842;SDS011;10082;51.038;6.992;2023-06-14T12:11:12;2.08;;;1.50;;
19842;SDS011;10082;51.038;6.992;2023-06-14T12:13:40;1.70;;;1.60;;
19842;SDS011;10082;51.038;6.992;2023-06-14T12:16:08;1.63;;;1.52;;
19842;SDS011;10082;51.038;6.992;2023-06-14T12:18:37;2.33;;;1.60;;
19842;SDS011;10082;51.038;6.992;2023-06-14T12:21:08;1.50;;;1.40;;
19842;SDS011;10082;51.038;6.992;2023-06-14T12:23:42;1.60;;;1.50;;
19842;SDS011;10082;51.038;6.992;2023-06-14T12:26:12;1.45;;;1.35;;
19842;SDS011;10082;51.038;6.992;2023-06-14T12:28:40;1.88;;;1.50;;
19842;SDS011;10082;51.038;6.992;2023-06-14T12:31:08;3.40;;;1.60;;
19842;SDS011;10082;51.038;6.992;2023-06-14T12:33:35;1.52;;;1.42;;
19842;SDS011;10082;51.038;6.992;2023-06-14T12:36:04;1.70;;;1.60;;
19842;SDS011;10082;51.038;6.992;2023-06-14T12:38:33;2.97;;;1.58;;
19842;SDS011;10082;51.038;6.992;2023-06-14T12:41:01;2.15;;;1.55;;
19842;SDS011;10082;51.038;6.992;2023-06-14T12:43:28;1.90;;;1.40;;
19842;SDS011;10082;51.038;6.992;2023-06-14T12:45:55;1.77;;;1.58;;
19842;SDS011;10082;51.038;6.992;2023-06-14T12:48:23;1.60;;;1.50;;
19842;SDS011;10082;51.038;6.992;2023-06-14T12:50:50;4.10;;;1.70;;
19842;SDS011;10082;51.038;6.992;2023-06-14T12:53:17;2.03;;;1.30;;
19842;SDS011;10082;51.038;6.992;2023-06-14T12:55:45;1.60;;;1.50;;
19842;SDS011;10082;51.038;6.992;2023-06-14T12:58:12;1.60;;;1.50;;
19842;SDS011;10082;51.038;6.992;2023-06-14T13:00:40;1.88;;;1.77;;
19842;SDS011;10082;51.038;6.992;2023-06-14T13:03:07;2.42;;;1.60;;
19842;SDS011;10082;51.038;6.992;2023-06-14T13:05:33;1.50;;;1.40;;
19842;SDS011;10082;51.038;6.992;2023-06-14T13:08:02;1.60;;;1.50;;
19842;SDS011;10082;51.038;6.992;2023-06-14T13:10:29;1.50;;;1.40;;
19842;SDS011;10082;51.038;6.992;2023-06-14T13:12:58;2.00;;;1.80;;
19842;SDS011;10082;51.038;6.992;2023-06-14T13:15:25;2.42;;;1.80;;
19842;SDS011;10082;51.038;6.992;2023-06-14T13:17:52;2.05;;;1.60;;
19842;SDS011;10082;51.038;6.992;2023-06-14T13:20:21;2.45;;;1.67;;
19842;SDS011;10082;51.038;6.992;2023-06-14T13:22:48;2.38;;;1.50;;
19842;SDS011;10082;51.038;6.992;2023-06-14T13:25:15;1.67;;;1.58;;
19842;SDS011;10082;51.038;6.992;2023-06-14T13:27:43;2.38;;;1.75;;
19842;SDS011;10082;51.038;6.992;2023-06-14T13:30:12;2.42;;;1.70;;
19842;SDS011;10082;51.038;6.992;2023-06-14T13:32:39;1.60;;;1.50;;
19842;SDS011;10082;51.038;6.992;2023-06-14T13:35:06;1.88;;;1.60;;
19842;SDS011;10082;51.038;6.992;2023-06-14T13:37:33;2.05;;;1.85;;
19842;SDS011;10082;51.038;6.992;2023-06-14T13:40:00;3.15;;;1.90;;
19842;SDS011;10082;51.038;6.992;2023-06-14T13:42:27;2.20;;;1.75;;
19842;SDS011;10082;51.038;6.992;2023-06-14T13:44:56;2.25;;;1.73;;
19842;SDS011;10082;51.038;6.992;2023-06-14T13:47:24;1.83;;;1.73;;
19842;SDS011;10082;51.038;6.992;2023-06-14T13:49:51;1.80;;;1.70;;
19842;SDS011;10082;51.038;6.992;2023-06-14T13:52:18;2.58;;;1.90;;
19842;SDS011;10082;51.038;6.992;2023-06-14T13:54:45;2.13;;;1.90;;
19842;SDS011;10082;51.038;6.992;2023-06-14T13:57:11;2.10;;;1.88;;
19842;SDS011;10082;51.038;6.992;2023-06-14T13:59:38;2.60;;;2.17;;
19842;SDS011;10082;51.038;6.992;2023-06-14T14:02:05;3.63;;;1.98;;
19842;SDS011;10082;51.038;6.992;2023-06-14T14:04:35;2.00;;;1.80;;
19842;SDS011;10082;51.038;6.992;2023-06-14T14:07:01;2.33;;;2.10;;
19842;SDS011;10082;51.038;6.992;2023-06-14T14:09:29;2.50;;;1.88;;
19842;SDS011;10082;51.038;6.992;2023-06-14T14:11:55;2.55;;;2.33;;
19842;SDS011;10082;51.038;6.992;2023-06-14T14:14:23;2.30;;;2.05;;
19842;SDS011;10082;51.038;6.992;2023-06-14T14:16:50;2.55;;;1.98;;
19842;SDS011;10082;51.038;6.992;2023-06-14T14:19:18;2.17;;;1.98;;
19842;SDS011;10082;51.038;6.992;2023-06-14T14:21:47;2.40;;;2.20;;
19842;SDS011;10082;51.038;6.992;2023-06-14T14:24:14;2.30;;;1.92;;
19842;SDS011;10082;51.038;6.992;2023-06-14T14:26:42;2.30;;;2.10;;
19842;SDS011;10082;51.038;6.992;2023-06-14T14:29:09;4.60;;;1.92;;
19842;SDS011;10082;51.038;6.992;2023-06-14T14:31:37;2.60;;;2.40;;
19842;SDS011;10082;51.038;6.992;2023-06-14T14:34:04;2.55;;;2.35;;
19842;SDS011;10082;51.038;6.992;2023-06-14T14:36:31;2.95;;;2.20;;
19842;SDS011;10082;51.038;6.992;2023-06-14T14:39:00;2.42;;;1.88;;
19842;SDS011;10082;51.038;6.992;2023-06-14T14:41:27;2.58;;;2.00;;
19842;SDS011;10082;51.038;6.992;2023-06-14T14:43:54;2.20;;;2.00;;
19842;SDS011;10082;51.038;6.992;2023-06-14T14:46:21;2.22;;;2.13;;
19842;SDS011;10082;51.038;6.992;2023-06-14T14:48:49;2.05;;;1.95;;
19842;SDS011;10082;51.038;6.992;2023-06-14T14:51:16;2.40;;;2.20;;
19842;SDS011;10082;51.038;6.992;2023-06-14T14:53:43;2.50;;;2.03;;
19842;SDS011;10082;51.038;6.992;2023-06-14T14:56:12;2.30;;;2.10;;
19842;SDS011;10082;51.038;6.992;2023-06-14T14:58:38;2.80;;;2.10;;
19842;SDS011;10082;51.038;6.992;2023-06-14T15:01:05;3.03;;;2.53;;
19842;SDS011;10082;51.038;6.992;2023-06-14T15:03:32;2.10;;;2.00;;
19842;SDS011;10082;51.038;6.992;2023-06-14T15:05:59;2.00;;;1.90;;
19842;SDS011;10082;51.038;6.992;2023-06-14T15:08:26;2.22;;;2.13;;